sensor_id;sensor_type;location;lat;lon;timestamp;temperature;humidity
30889;DHT22;51092;50.874;7.024;2022-12-18T00:00:45;-4.50;99.90
30889;DHT22;51092;50.874;7.024;2022-12-18T00:01:48;-4.60;99.90
30889;DHT22;51092;50.874;7.024;2022-12-18T00:02:50;-4.60;99.90
30889;DHT22;51092;50.874;7.024;2022-12-18T00:03:53;-4.50;99.90
30889;DHT22;51092;50.874;7.024;2022-12-18T00:04:55;-4.60;99.90
30889;DHT22;51092;50.874;7.024;2022-12-18T00:06:01;-4.60;99.90
30889;DHT22;51092;50.874;7.024;2022-12-18T00:07:02;-4.70;99.90
30889;DHT22;51092;50.874;7.024;2022-12-18T00:08:05;-4.70;99.90
30889;DHT22;51092;50.874;7.024;2022-12-18T00:09:06;-4.70;99.90
30889;DHT22;51092;50.874;7.024;2022-12-18T00:10:10;-4.70;99.90
30889;DHT22;51092;50.874;7.024;2022-12-18T00:11:15;-4.70;99.90
30889;DHT22;51092;50.874;7.024;2022-12-18T00:12:17;-4.70;99.90
30889;DHT22;51092;50.874;7.024;2022-12-18T00:13:19;-4.70;99.90
30889;DHT22;51092;50.874;7.024;2022-12-18T00:14:21;-4.70;99.90
30889;DHT22;51092;50.874;7.024;2022-12-18T00:15:23;-4.70;99.90
30889;DHT22;51092;50.874;7.024;2022-12-18T00:16:26;-4.80;99.90
30889;DHT22;51092;50.874;7.024;2022-12-18T00:17:28;-4.80;99.90
30889;DHT22;51092;50.874;7.024;2022-12-18T00:18:30;-4.80;99.90
30889;DHT22;51092;50.874;7.024;2022-12-18T00:19:33;-4.80;99.90
30889;DHT22;51092;50.874;7.024;2022-12-18T00:20:36;-4.80;99.90
30889;DHT22;51092;50.874;7.024;2022-12-18T00:21:39;-4.80;99.90
30889;DHT22;51092;50.874;7.024;2022-12-18T00:22:41;-4.80;99.90
30889;DHT22;51092;50.874;7.024;2022-12-18T00:23:46;-4.80;99.90
30889;DHT22;51092;50.874;7.024;2022-12-18T00:24:48;-4.90;99.90
30889;DHT22;51092;50.874;7.024;2022-12-18T00:25:52;-4.80;99.90
30889;DHT22;51092;50.874;7.024;2022-12-18T00:26:54;-4.90;99.90
30889;DHT22;51092;50.874;7.024;2022-12-18T00:27:56;-4.90;99.90
30889;DHT22;51092;50.874;7.024;2022-12-18T00:28:59;-4.90;99.90
30889;DHT22;51092;50.874;7.024;2022-12-18T00:30:03;-4.90;99.90
30889;DHT22;51092;50.874;7.024;2022-12-18T00:31:06;-4.90;99.90
30889;DHT22;51092;50.874;7.024;2022-12-18T00:32:08;-4.80;99.90
30889;DHT22;51092;50.874;7.024;2022-12-18T00:33:10;-4.80;99.90
30889;DHT22;51092;50.874;7.024;2022-12-18T00:34:13;-4.80;99.90
30889;DHT22;51092;50.874;7.024;2022-12-18T00:35:15;-4.90;99.90
30889;DHT22;51092;50.874;7.024;2022-12-18T00:36:19;-4.80;99.90
30889;DHT22;51092;50.874;7.024;2022-12-18T00:37:22;-4.80;99.90
30889;DHT22;51092;50.874;7.024;2022-12-18T00:38:23;-4.80;99.90
30889;DHT22;51092;50.874;7.024;2022-12-18T00:39:26;-4.80;99.90
30889;DHT22;51092;50.874;7.024;2022-12-18T00:40:28;-4.80;99.90
30889;DHT22;51092;50.874;7.024;2022-12-18T00:41:31;-4.90;99.90
30889;DHT22;51092;50.874;7.024;2022-12-18T00:42:51;-4.90;99.90
30889;DHT22;51092;50.874;7.024;2022-12-18T00:43:59;-4.90;99.90
30889;DHT22;51092;50.874;7.024;2022-12-18T00:45:01;-4.90;99.90
30889;DHT22;51092;50.874;7.024;2022-12-18T00:46:03;-4.90;99.90
30889;DHT22;51092;50.874;7.024;2022-12-18T00:47:05;-4.90;99.90
30889;DHT22;51092;50.874;7.024;2022-12-18T00:48:07;-4.90;99.90
30889;DHT22;51092;50.874;7.024;2022-12-18T00:49:09;-5.00;99.90
30889;DHT22;51092;50.874;7.024;2022-12-18T00:50:13;-5.00;99.90
30889;DHT22;51092;50.874;7.024;2022-12-18T00:51:16;-5.00;99.90
30889;DHT22;51092;50.874;7.024;2022-12-18T00:52:17;-5.00;99.90
30889;DHT22;51092;50.874;7.024;2022-12-18T00:53:20;-5.10;99.90
30889;DHT22;51092;50.874;7.024;2022-12-18T00:54:22;-5.10;99.90
30889;DHT22;51092;50.874;7.024;2022-12-18T00:55:24;-5.10;99.90
30889;DHT22;51092;50.874;7.024;2022-12-18T00:56:26;-5.10;99.90
30889;DHT22;51092;50.874;7.024;2022-12-18T00:57:29;-5.10;99.90
30889;DHT22;51092;50.874;7.024;2022-12-18T00:58:31;-5.10;99.90
30889;DHT22;51092;50.874;7.024;2022-12-18T00:59:40;-5.20;99.90
30889;DHT22;51092;50.874;7.024;2022-12-18T01:00:43;-5.10;99.90
30889;DHT22;51092;50.874;7.024;2022-12-18T01:01:46;-5.10;99.90
30889;DHT22;51092;50.874;7.024;2022-12-18T01:02:47;-5.10;99.90
30889;DHT22;51092;50.874;7.024;2022-12-18T01:03:50;-5.10;99.90
30889;DHT22;51092;50.874;7.024;2022-12-18T01:04:52;-5.10;99.90
30889;DHT22;51092;50.874;7.024;2022-12-18T01:05:54;-5.10;99.90
30889;DHT22;51092;50.874;7.024;2022-12-18T01:06:56;-5.10;99.90
30889;DHT22;51092;50.874;7.024;2022-12-18T01:07:58;-5.10;99.90
30889;DHT22;51092;50.874;7.024;2022-12-18T01:09:01;-5.10;99.90
30889;DHT22;51092;50.874;7.024;2022-12-18T01:10:04;-5.10;99.90
30889;DHT22;51092;50.874;7.024;2022-12-18T01:11:07;-5.10;99.90
30889;DHT22;51092;50.874;7.024;2022-12-18T01:12:09;-5.10;99.90
30889;DHT22;51092;50.874;7.024;2022-12-18T01:13:13;-5.10;99.90
30889;DHT22;51092;50.874;7.024;2022-12-18T01:14:14;-5.10;99.90
30889;DHT22;51092;50.874;7.024;2022-12-18T01:15:17;-5.10;99.90
30889;DHT22;51092;50.874;7.024;2022-12-18T01:16:19;-5.10;99.90
30889;DHT22;51092;50.874;7.024;2022-12-18T01:17:22;-5.10;99.90
30889;DHT22;51092;50.874;7.024;2022-12-18T01:18:23;-5.10;99.90
30889;DHT22;51092;50.874;7.024;2022-12-18T01:19:26;-5.20;99.90
30889;DHT22;51092;50.874;7.024;2022-12-18T01:20:28;-5.20;99.90
30889;DHT22;51092;50.874;7.024;2022-12-18T01:21:30;-5.20;99.90
30889;DHT22;51092;50.874;7.024;2022-12-18T01:22:32;-5.20;99.90
30889;DHT22;51092;50.874;7.024;2022-12-18T01:23:36;-5.20;99.90
30889;DHT22;51092;50.874;7.024;2022-12-18T01:24:39;-5.20;99.90
30889;DHT22;51092;50.874;7.024;2022-12-18T01:25:40;-5.20;99.90
30889;DHT22;51092;50.874;7.024;2022-12-18T01:26:42;-5.10;99.90
30889;DHT22;51092;50.874;7.024;2022-12-18T01:27:43;-5.10;99.90
30889;DHT22;51092;50.874;7.024;2022-12-18T01:28:46;-5.10;99.90
30889;DHT22;51092;50.874;7.024;2022-12-18T01:29:49;-5.10;99.90
30889;DHT22;51092;50.874;7.024;2022-12-18T01:30:51;-5.10;99.90
30889;DHT22;51092;50.874;7.024;2022-12-18T01:31:55;-5.10;99.90
30889;DHT22;51092;50.874;7.024;2022-12-18T01:32:57;-5.10;99.90
30889;DHT22;51092;50.874;7.024;2022-12-18T01:34:00;-5.00;99.90
30889;DHT22;51092;50.874;7.024;2022-12-18T01:35:04;-5.00;99.90
30889;DHT22;51092;50.874;7.024;2022-12-18T01:36:06;-5.00;99.90
30889;DHT22;51092;50.874;7.024;2022-12-18T01:37:09;-5.00;99.90
30889;DHT22;51092;50.874;7.024;2022-12-18T01:38:11;-5.00;99.90
30889;DHT22;51092;50.874;7.024;2022-12-18T01:39:14;-5.10;99.90
30889;DHT22;51092;50.874;7.024;2022-12-18T01:40:16;-5.10;99.90
30889;DHT22;51092;50.874;7.024;2022-12-18T01:41:21;-5.00;99.90
30889;DHT22;51092;50.874;7.024;2022-12-18T01:42:22;-5.00;99.90
30889;DHT22;51092;50.874;7.024;2022-12-18T01:43:42;-5.00;99.90
30889;DHT22;51092;50.874;7.024;2022-12-18T01:44:57;-5.00;99.90
30889;DHT22;51092;50.874;7.024;2022-12-18T01:46:00;-5.10;99.90
30889;DHT22;51092;50.874;7.024;2022-12-18T01:47:01;-5.10;99.90
30889;DHT22;51092;50.874;7.024;2022-12-18T01:48:06;-5.10;99.90
30889;DHT22;51092;50.874;7.024;2022-12-18T01:49:09;-5.10;99.90
30889;DHT22;51092;50.874;7.024;2022-12-18T01:50:14;-5.10;99.90
30889;DHT22;51092;50.874;7.024;2022-12-18T01:51:16;-5.20;99.90
30889;DHT22;51092;50.874;7.024;2022-12-18T01:52:20;-5.20;99.90
30889;DHT22;51092;50.874;7.024;2022-12-18T01:53:23;-5.20;99.90
30889;DHT22;51092;50.874;7.024;2022-12-18T01:54:25;-5.20;99.90
30889;DHT22;51092;50.874;7.024;2022-12-18T01:55:32;-5.10;99.90
30889;DHT22;51092;50.874;7.024;2022-12-18T01:56:40;-5.00;99.90
30889;DHT22;51092;50.874;7.024;2022-12-18T01:57:42;-5.00;99.90
30889;DHT22;51092;50.874;7.024;2022-12-18T01:58:53;-5.00;99.90
30889;DHT22;51092;50.874;7.024;2022-12-18T01:59:59;-5.00;99.90
30889;DHT22;51092;50.874;7.024;2022-12-18T02:01:01;-5.00;99.90
30889;DHT22;51092;50.874;7.024;2022-12-18T02:02:03;-5.00;99.90
30889;DHT22;51092;50.874;7.024;2022-12-18T02:03:05;-4.90;99.90
30889;DHT22;51092;50.874;7.024;2022-12-18T02:04:20;-4.90;99.90
30889;DHT22;51092;50.874;7.024;2022-12-18T02:05:29;-4.80;99.90
30889;DHT22;51092;50.874;7.024;2022-12-18T02:06:40;-4.80;99.90
30889;DHT22;51092;50.874;7.024;2022-12-18T02:07:51;-4.90;99.90
30889;DHT22;51092;50.874;7.024;2022-12-18T02:09:02;-4.80;99.90
30889;DHT22;51092;50.874;7.024;2022-12-18T02:10:07;-4.90;99.90
30889;DHT22;51092;50.874;7.024;2022-12-18T02:11:17;-4.90;99.90
30889;DHT22;51092;50.874;7.024;2022-12-18T02:12:22;-4.90;99.90
30889;DHT22;51092;50.874;7.024;2022-12-18T02:13:30;-4.90;99.90
30889;DHT22;51092;50.874;7.024;2022-12-18T02:14:38;-4.90;99.90
30889;DHT22;51092;50.874;7.024;2022-12-18T02:15:46;-4.90;99.90
30889;DHT22;51092;50.874;7.024;2022-12-18T02:16:57;-4.90;99.90
30889;DHT22;51092;50.874;7.024;2022-12-18T02:18:06;-4.90;99.90
30889;DHT22;51092;50.874;7.024;2022-12-18T02:19:16;-4.90;99.90
30889;DHT22;51092;50.874;7.024;2022-12-18T02:20:23;-4.90;99.90
30889;DHT22;51092;50.874;7.024;2022-12-18T02:21:32;-4.90;99.90
30889;DHT22;51092;50.874;7.024;2022-12-18T02:22:44;-4.90;99.90
30889;DHT22;51092;50.874;7.024;2022-12-18T02:23:56;-4.90;99.90
30889;DHT22;51092;50.874;7.024;2022-12-18T02:25:18;-4.90;99.90
30889;DHT22;51092;50.874;7.024;2022-12-18T02:26:28;-4.90;99.90
30889;DHT22;51092;50.874;7.024;2022-12-18T02:27:32;-4.90;99.90
30889;DHT22;51092;50.874;7.024;2022-12-18T02:28:39;-4.90;99.90
30889;DHT22;51092;50.874;7.024;2022-12-18T02:29:46;-4.90;99.90
30889;DHT22;51092;50.874;7.024;2022-12-18T02:30:51;-5.00;99.90
30889;DHT22;51092;50.874;7.024;2022-12-18T02:31:56;-5.00;99.90
30889;DHT22;51092;50.874;7.024;2022-12-18T02:33:06;-4.90;99.90
30889;DHT22;51092;50.874;7.024;2022-12-18T02:34:10;-4.90;99.90
30889;DHT22;51092;50.874;7.024;2022-12-18T02:35:16;-5.00;99.90
30889;DHT22;51092;50.874;7.024;2022-12-18T02:36:20;-5.00;99.90
30889;DHT22;51092;50.874;7.024;2022-12-18T02:37:25;-5.00;99.90
30889;DHT22;51092;50.874;7.024;2022-12-18T02:38:29;-4.90;99.90
30889;DHT22;51092;50.874;7.024;2022-12-18T02:39:36;-5.00;99.90
30889;DHT22;51092;50.874;7.024;2022-12-18T02:40:39;-4.90;99.90
30889;DHT22;51092;50.874;7.024;2022-12-18T02:41:44;-5.00;99.90
30889;DHT22;51092;50.874;7.024;2022-12-18T02:42:45;-5.00;99.90
30889;DHT22;51092;50.874;7.024;2022-12-18T02:43:49;-5.00;99.90
30889;DHT22;51092;50.874;7.024;2022-12-18T02:44:51;-5.00;99.90
30889;DHT22;51092;50.874;7.024;2022-12-18T02:45:58;-5.00;99.90
30889;DHT22;51092;50.874;7.024;2022-12-18T02:47:01;-5.00;99.90
30889;DHT22;51092;50.874;7.024;2022-12-18T02:48:04;-5.10;99.90
30889;DHT22;51092;50.874;7.024;2022-12-18T02:49:12;-5.10;99.90
30889;DHT22;51092;50.874;7.024;2022-12-18T02:50:22;-5.10;99.90
30889;DHT22;51092;50.874;7.024;2022-12-18T02:51:30;-5.10;99.90
30889;DHT22;51092;50.874;7.024;2022-12-18T02:52:39;-5.10;99.90
30889;DHT22;51092;50.874;7.024;2022-12-18T02:53:45;-5.00;99.90
30889;DHT22;51092;50.874;7.024;2022-12-18T02:54:56;-5.00;99.90
30889;DHT22;51092;50.874;7.024;2022-12-18T02:56:05;-5.10;99.90
30889;DHT22;51092;50.874;7.024;2022-12-18T02:57:14;-5.00;99.90
30889;DHT22;51092;50.874;7.024;2022-12-18T02:58:19;-5.00;99.90
30889;DHT22;51092;50.874;7.024;2022-12-18T02:59:29;-5.10;99.90
30889;DHT22;51092;50.874;7.024;2022-12-18T03:00:35;-5.10;99.90
30889;DHT22;51092;50.874;7.024;2022-12-18T03:01:47;-5.10;99.90
30889;DHT22;51092;50.874;7.024;2022-12-18T03:02:54;-5.00;99.90
30889;DHT22;51092;50.874;7.024;2022-12-18T03:04:01;-5.00;99.90
30889;DHT22;51092;50.874;7.024;2022-12-18T03:05:08;-5.00;99.90
30889;DHT22;51092;50.874;7.024;2022-12-18T03:06:17;-5.00;99.90
30889;DHT22;51092;50.874;7.024;2022-12-18T03:07:23;-5.00;99.90
30889;DHT22;51092;50.874;7.024;2022-12-18T03:08:29;-5.00;99.90
30889;DHT22;51092;50.874;7.024;2022-12-18T03:09:35;-4.90;99.90
30889;DHT22;51092;50.874;7.024;2022-12-18T03:10:42;-5.00;99.90
30889;DHT22;51092;50.874;7.024;2022-12-18T03:11:52;-5.00;99.90
30889;DHT22;51092;50.874;7.024;2022-12-18T03:13:18;-4.90;99.90
30889;DHT22;51092;50.874;7.024;2022-12-18T03:14:23;-4.90;99.90
30889;DHT22;51092;50.874;7.024;2022-12-18T03:15:29;-4.80;99.90
30889;DHT22;51092;50.874;7.024;2022-12-18T03:16:33;-4.90;99.90
30889;DHT22;51092;50.874;7.024;2022-12-18T03:17:36;-4.80;99.90
30889;DHT22;51092;50.874;7.024;2022-12-18T03:18:46;-4.90;99.90
30889;DHT22;51092;50.874;7.024;2022-12-18T03:19:49;-4.90;99.90
30889;DHT22;51092;50.874;7.024;2022-12-18T03:20:56;-4.90;99.90
30889;DHT22;51092;50.874;7.024;2022-12-18T03:22:02;-4.90;99.90
30889;DHT22;51092;50.874;7.024;2022-12-18T03:23:09;-4.90;99.90
30889;DHT22;51092;50.874;7.024;2022-12-18T03:24:12;-4.80;99.90
30889;DHT22;51092;50.874;7.024;2022-12-18T03:25:16;-4.80;99.90
30889;DHT22;51092;50.874;7.024;2022-12-18T03:26:21;-4.80;99.90
30889;DHT22;51092;50.874;7.024;2022-12-18T03:27:25;-4.90;99.90
30889;DHT22;51092;50.874;7.024;2022-12-18T03:28:30;-4.90;99.90
30889;DHT22;51092;50.874;7.024;2022-12-18T03:29:37;-4.90;99.90
30889;DHT22;51092;50.874;7.024;2022-12-18T03:30:41;-5.00;99.90
30889;DHT22;51092;50.874;7.024;2022-12-18T03:31:49;-4.90;99.90
30889;DHT22;51092;50.874;7.024;2022-12-18T03:32:53;-4.90;99.90
30889;DHT22;51092;50.874;7.024;2022-12-18T03:34:01;-4.90;99.90
30889;DHT22;51092;50.874;7.024;2022-12-18T03:35:04;-5.00;99.90
30889;DHT22;51092;50.874;7.024;2022-12-18T03:36:07;-5.00;99.90
30889;DHT22;51092;50.874;7.024;2022-12-18T03:37:09;-5.00;99.90
30889;DHT22;51092;50.874;7.024;2022-12-18T03:38:12;-5.00;99.90
30889;DHT22;51092;50.874;7.024;2022-12-18T03:39:14;-5.00;99.90
30889;DHT22;51092;50.874;7.024;2022-12-18T03:40:17;-5.00;99.90
30889;DHT22;51092;50.874;7.024;2022-12-18T03:41:20;-5.10;99.90
30889;DHT22;51092;50.874;7.024;2022-12-18T03:42:29;-5.00;99.90
30889;DHT22;51092;50.874;7.024;2022-12-18T03:43:45;-5.00;99.90
30889;DHT22;51092;50.874;7.024;2022-12-18T03:44:54;-5.00;99.90
30889;DHT22;51092;50.874;7.024;2022-12-18T03:46:02;-5.00;99.90
30889;DHT22;51092;50.874;7.024;2022-12-18T03:47:08;-5.00;99.90
30889;DHT22;51092;50.874;7.024;2022-12-18T03:48:15;-5.00;99.90
30889;DHT22;51092;50.874;7.024;2022-12-18T03:49:24;-5.00;99.90
30889;DHT22;51092;50.874;7.024;2022-12-18T03:50:34;-5.00;99.90
30889;DHT22;51092;50.874;7.024;2022-12-18T03:51:40;-5.10;99.90
30889;DHT22;51092;50.874;7.024;2022-12-18T03:52:46;-5.10;99.90
30889;DHT22;51092;50.874;7.024;2022-12-18T03:53:55;-5.10;99.90
30889;DHT22;51092;50.874;7.024;2022-12-18T03:54:58;-5.10;99.90
30889;DHT22;51092;50.874;7.024;2022-12-18T03:56:02;-5.10;99.90
30889;DHT22;51092;50.874;7.024;2022-12-18T03:57:09;-5.20;99.90
30889;DHT22;51092;50.874;7.024;2022-12-18T03:58:15;-5.20;99.90
30889;DHT22;51092;50.874;7.024;2022-12-18T03:59:21;-5.20;99.90
30889;DHT22;51092;50.874;7.024;2022-12-18T04:00:25;-5.20;99.90
30889;DHT22;51092;50.874;7.024;2022-12-18T04:01:30;-5.10;99.90
30889;DHT22;51092;50.874;7.024;2022-12-18T04:02:35;-5.10;99.90
30889;DHT22;51092;50.874;7.024;2022-12-18T04:03:39;-5.10;99.90
30889;DHT22;51092;50.874;7.024;2022-12-18T04:04:42;-5.20;99.90
30889;DHT22;51092;50.874;7.024;2022-12-18T04:05:44;-5.10;99.90
30889;DHT22;51092;50.874;7.024;2022-12-18T04:06:48;-5.10;99.90
30889;DHT22;51092;50.874;7.024;2022-12-18T04:07:51;-5.10;99.90
30889;DHT22;51092;50.874;7.024;2022-12-18T04:08:54;-5.20;99.90
30889;DHT22;51092;50.874;7.024;2022-12-18T04:09:56;-5.10;99.90
30889;DHT22;51092;50.874;7.024;2022-12-18T04:11:01;-5.20;99.90
30889;DHT22;51092;50.874;7.024;2022-12-18T04:12:03;-5.20;99.90
30889;DHT22;51092;50.874;7.024;2022-12-18T04:13:05;-5.20;99.90
30889;DHT22;51092;50.874;7.024;2022-12-18T04:14:07;-5.30;99.90
30889;DHT22;51092;50.874;7.024;2022-12-18T04:15:12;-5.30;99.90
30889;DHT22;51092;50.874;7.024;2022-12-18T04:16:13;-5.30;99.90
30889;DHT22;51092;50.874;7.024;2022-12-18T04:17:16;-5.30;99.90
30889;DHT22;51092;50.874;7.024;2022-12-18T04:18:17;-5.30;99.90
30889;DHT22;51092;50.874;7.024;2022-12-18T04:19:19;-5.30;99.90
30889;DHT22;51092;50.874;7.024;2022-12-18T04:20:21;-5.30;99.90
30889;DHT22;51092;50.874;7.024;2022-12-18T04:21:23;-5.40;99.90
30889;DHT22;51092;50.874;7.024;2022-12-18T04:22:25;-5.30;99.90
30889;DHT22;51092;50.874;7.024;2022-12-18T04:23:27;-5.40;99.90
30889;DHT22;51092;50.874;7.024;2022-12-18T04:24:29;-5.40;99.90
30889;DHT22;51092;50.874;7.024;2022-12-18T04:25:31;-5.40;99.90
30889;DHT22;51092;50.874;7.024;2022-12-18T04:26:32;-5.50;99.90
30889;DHT22;51092;50.874;7.024;2022-12-18T04:27:34;-5.60;99.90
30889;DHT22;51092;50.874;7.024;2022-12-18T04:28:35;-5.50;99.90
30889;DHT22;51092;50.874;7.024;2022-12-18T04:29:37;-5.50;99.90
30889;DHT22;51092;50.874;7.024;2022-12-18T04:30:40;-5.50;99.90
30889;DHT22;51092;50.874;7.024;2022-12-18T04:31:42;-5.60;99.90
30889;DHT22;51092;50.874;7.024;2022-12-18T04:32:44;-5.60;99.90
30889;DHT22;51092;50.874;7.024;2022-12-18T04:33:46;-5.60;99.90
30889;DHT22;51092;50.874;7.024;2022-12-18T04:34:47;-5.70;99.90
30889;DHT22;51092;50.874;7.024;2022-12-18T04:35:50;-5.70;99.90
30889;DHT22;51092;50.874;7.024;2022-12-18T04:36:51;-5.70;99.90
30889;DHT22;51092;50.874;7.024;2022-12-18T04:37:54;-5.70;99.90
30889;DHT22;51092;50.874;7.024;2022-12-18T04:38:56;-5.70;99.90
30889;DHT22;51092;50.874;7.024;2022-12-18T04:39:58;-5.70;99.90
30889;DHT22;51092;50.874;7.024;2022-12-18T04:41:00;-5.80;99.90
30889;DHT22;51092;50.874;7.024;2022-12-18T04:42:02;-5.80;99.90
30889;DHT22;51092;50.874;7.024;2022-12-18T04:43:04;-5.90;99.90
30889;DHT22;51092;50.874;7.024;2022-12-18T04:44:07;-5.70;99.90
30889;DHT22;51092;50.874;7.024;2022-12-18T04:45:09;-5.80;99.90
30889;DHT22;51092;50.874;7.024;2022-12-18T04:46:12;-5.80;99.90
30889;DHT22;51092;50.874;7.024;2022-12-18T04:47:14;-5.80;99.90
30889;DHT22;51092;50.874;7.024;2022-12-18T04:48:16;-5.80;99.90
30889;DHT22;51092;50.874;7.024;2022-12-18T04:49:18;-5.80;99.90
30889;DHT22;51092;50.874;7.024;2022-12-18T04:50:20;-5.80;99.90
30889;DHT22;51092;50.874;7.024;2022-12-18T04:51:22;-5.80;99.90
30889;DHT22;51092;50.874;7.024;2022-12-18T04:52:24;-5.90;99.90
30889;DHT22;51092;50.874;7.024;2022-12-18T04:53:26;-5.90;99.90
30889;DHT22;51092;50.874;7.024;2022-12-18T04:54:28;-5.90;99.90
30889;DHT22;51092;50.874;7.024;2022-12-18T04:55:30;-5.90;99.90
30889;DHT22;51092;50.874;7.024;2022-12-18T04:56:32;-5.90;99.90
30889;DHT22;51092;50.874;7.024;2022-12-18T04:57:34;-5.90;99.90
30889;DHT22;51092;50.874;7.024;2022-12-18T04:58:37;-5.90;99.90
30889;DHT22;51092;50.874;7.024;2022-12-18T04:59:39;-5.90;99.90
30889;DHT22;51092;50.874;7.024;2022-12-18T05:00:41;-6.00;99.90
30889;DHT22;51092;50.874;7.024;2022-12-18T05:01:44;-5.90;99.90
30889;DHT22;51092;50.874;7.024;2022-12-18T05:02:46;-6.00;99.90
30889;DHT22;51092;50.874;7.024;2022-12-18T05:03:48;-6.00;99.90
30889;DHT22;51092;50.874;7.024;2022-12-18T05:04:50;-5.90;99.90
30889;DHT22;51092;50.874;7.024;2022-12-18T05:05:52;-5.90;99.90
30889;DHT22;51092;50.874;7.024;2022-12-18T05:06:55;-6.00;99.90
30889;DHT22;51092;50.874;7.024;2022-12-18T05:07:56;-6.00;99.90
30889;DHT22;51092;50.874;7.024;2022-12-18T05:08:59;-6.00;99.90
30889;DHT22;51092;50.874;7.024;2022-12-18T05:10:00;-6.00;99.90
30889;DHT22;51092;50.874;7.024;2022-12-18T05:11:04;-6.00;99.90
30889;DHT22;51092;50.874;7.024;2022-12-18T05:12:06;-6.00;99.90
30889;DHT22;51092;50.874;7.024;2022-12-18T05:13:08;-6.00;99.90
30889;DHT22;51092;50.874;7.024;2022-12-18T05:14:10;-6.00;99.90
30889;DHT22;51092;50.874;7.024;2022-12-18T05:15:13;-5.90;99.90
30889;DHT22;51092;50.874;7.024;2022-12-18T05:16:15;-5.90;99.90
30889;DHT22;51092;50.874;7.024;2022-12-18T05:17:19;-5.90;99.90
30889;DHT22;51092;50.874;7.024;2022-12-18T05:18:20;-6.00;99.90
30889;DHT22;51092;50.874;7.024;2022-12-18T05:19:23;-6.00;99.90
30889;DHT22;51092;50.874;7.024;2022-12-18T05:20:24;-6.00;99.90
30889;DHT22;51092;50.874;7.024;2022-12-18T05:21:27;-6.00;99.90
30889;DHT22;51092;50.874;7.024;2022-12-18T05:22:29;-6.00;99.90
30889;DHT22;51092;50.874;7.024;2022-12-18T05:23:31;-5.90;99.90
30889;DHT22;51092;50.874;7.024;2022-12-18T05:24:35;-5.90;99.90
30889;DHT22;51092;50.874;7.024;2022-12-18T05:25:38;-5.90;99.90
30889;DHT22;51092;50.874;7.024;2022-12-18T05:26:39;-5.90;99.90
30889;DHT22;51092;50.874;7.024;2022-12-18T05:27:42;-5.80;99.90
30889;DHT22;51092;50.874;7.024;2022-12-18T05:28:44;-5.80;99.90
30889;DHT22;51092;50.874;7.024;2022-12-18T05:29:47;-5.80;99.90
30889;DHT22;51092;50.874;7.024;2022-12-18T05:30:50;-5.70;99.90
30889;DHT22;51092;50.874;7.024;2022-12-18T05:31:52;-5.70;99.90
30889;DHT22;51092;50.874;7.024;2022-12-18T05:32:55;-5.60;99.90
30889;DHT22;51092;50.874;7.024;2022-12-18T05:33:57;-5.70;99.90
30889;DHT22;51092;50.874;7.024;2022-12-18T05:35:00;-5.70;99.90
30889;DHT22;51092;50.874;7.024;2022-12-18T05:36:03;-5.70;99.90
30889;DHT22;51092;50.874;7.024;2022-12-18T05:37:06;-5.70;99.90
30889;DHT22;51092;50.874;7.024;2022-12-18T05:38:08;-5.80;99.90
30889;DHT22;51092;50.874;7.024;2022-12-18T05:39:10;-5.70;99.90
30889;DHT22;51092;50.874;7.024;2022-12-18T05:40:12;-5.70;99.90
30889;DHT22;51092;50.874;7.024;2022-12-18T05:41:15;-5.70;99.90
30889;DHT22;51092;50.874;7.024;2022-12-18T05:42:16;-5.70;99.90
30889;DHT22;51092;50.874;7.024;2022-12-18T05:43:20;-5.60;99.90
30889;DHT22;51092;50.874;7.024;2022-12-18T05:44:22;-5.50;99.90
30889;DHT22;51092;50.874;7.024;2022-12-18T05:45:25;-5.50;99.90
30889;DHT22;51092;50.874;7.024;2022-12-18T05:46:27;-5.50;99.90
30889;DHT22;51092;50.874;7.024;2022-12-18T05:47:29;-5.50;99.90
30889;DHT22;51092;50.874;7.024;2022-12-18T05:48:32;-5.50;99.90
30889;DHT22;51092;50.874;7.024;2022-12-18T05:49:34;-5.50;99.90
30889;DHT22;51092;50.874;7.024;2022-12-18T05:50:36;-5.50;99.90
30889;DHT22;51092;50.874;7.024;2022-12-18T05:51:39;-5.40;99.90
30889;DHT22;51092;50.874;7.024;2022-12-18T05:52:40;-5.40;99.90
30889;DHT22;51092;50.874;7.024;2022-12-18T05:53:43;-5.40;99.90
30889;DHT22;51092;50.874;7.024;2022-12-18T05:54:44;-5.40;99.90
30889;DHT22;51092;50.874;7.024;2022-12-18T05:55:47;-5.30;99.90
30889;DHT22;51092;50.874;7.024;2022-12-18T05:56:48;-5.30;99.90
30889;DHT22;51092;50.874;7.024;2022-12-18T05:57:51;-5.30;99.90
30889;DHT22;51092;50.874;7.024;2022-12-18T05:58:53;-5.30;99.90
30889;DHT22;51092;50.874;7.024;2022-12-18T05:59:56;-5.30;99.90
30889;DHT22;51092;50.874;7.024;2022-12-18T06:01:05;-5.30;99.90
30889;DHT22;51092;50.874;7.024;2022-12-18T06:02:07;-5.30;99.90
30889;DHT22;51092;50.874;7.024;2022-12-18T06:03:10;-5.20;99.90
30889;DHT22;51092;50.874;7.024;2022-12-18T06:04:14;-5.20;99.90
30889;DHT22;51092;50.874;7.024;2022-12-18T06:05:16;-5.20;99.90
30889;DHT22;51092;50.874;7.024;2022-12-18T06:06:19;-5.20;99.90
30889;DHT22;51092;50.874;7.024;2022-12-18T06:07:21;-5.30;99.90
30889;DHT22;51092;50.874;7.024;2022-12-18T06:08:24;-5.20;99.90
30889;DHT22;51092;50.874;7.024;2022-12-18T06:09:25;-5.20;99.90
30889;DHT22;51092;50.874;7.024;2022-12-18T06:10:28;-5.20;99.90
30889;DHT22;51092;50.874;7.024;2022-12-18T06:11:29;-5.20;99.90
30889;DHT22;51092;50.874;7.024;2022-12-18T06:12:32;-5.20;99.90
30889;DHT22;51092;50.874;7.024;2022-12-18T06:13:34;-5.20;99.90
30889;DHT22;51092;50.874;7.024;2022-12-18T06:14:37;-5.20;99.90
30889;DHT22;51092;50.874;7.024;2022-12-18T06:15:38;-5.20;99.90
30889;DHT22;51092;50.874;7.024;2022-12-18T06:16:41;-5.20;99.90
30889;DHT22;51092;50.874;7.024;2022-12-18T06:17:42;-5.20;99.90
30889;DHT22;51092;50.874;7.024;2022-12-18T06:18:45;-5.20;99.90
30889;DHT22;51092;50.874;7.024;2022-12-18T06:19:48;-5.20;99.90
30889;DHT22;51092;50.874;7.024;2022-12-18T06:20:55;-5.20;99.90
30889;DHT22;51092;50.874;7.024;2022-12-18T06:21:57;-5.20;99.90
30889;DHT22;51092;50.874;7.024;2022-12-18T06:23:00;-5.20;99.90
30889;DHT22;51092;50.874;7.024;2022-12-18T06:24:01;-5.30;99.90
30889;DHT22;51092;50.874;7.024;2022-12-18T06:25:05;-5.20;99.90
30889;DHT22;51092;50.874;7.024;2022-12-18T06:26:08;-5.20;99.90
30889;DHT22;51092;50.874;7.024;2022-12-18T06:27:11;-5.30;99.90
30889;DHT22;51092;50.874;7.024;2022-12-18T06:28:12;-5.30;99.90
30889;DHT22;51092;50.874;7.024;2022-12-18T06:29:15;-5.30;99.90
30889;DHT22;51092;50.874;7.024;2022-12-18T06:30:16;-5.40;99.90
30889;DHT22;51092;50.874;7.024;2022-12-18T06:31:19;-5.40;99.90
30889;DHT22;51092;50.874;7.024;2022-12-18T06:32:20;-5.50;99.90
30889;DHT22;51092;50.874;7.024;2022-12-18T06:33:26;-5.50;99.90
30889;DHT22;51092;50.874;7.024;2022-12-18T06:34:27;-5.50;99.90
30889;DHT22;51092;50.874;7.024;2022-12-18T06:35:34;-5.60;99.90
30889;DHT22;51092;50.874;7.024;2022-12-18T06:36:36;-5.80;99.90
30889;DHT22;51092;50.874;7.024;2022-12-18T06:37:38;-5.80;99.90
30889;DHT22;51092;50.874;7.024;2022-12-18T06:38:43;-5.80;99.90
30889;DHT22;51092;50.874;7.024;2022-12-18T06:39:45;-5.80;99.90
30889;DHT22;51092;50.874;7.024;2022-12-18T06:40:47;-5.80;99.90
30889;DHT22;51092;50.874;7.024;2022-12-18T06:41:48;-5.90;99.90
30889;DHT22;51092;50.874;7.024;2022-12-18T06:42:50;-5.90;99.90
30889;DHT22;51092;50.874;7.024;2022-12-18T06:43:51;-5.90;99.90